createdAt,value
2023-01-01T00:00:02.078Z,162.27
2023-01-01T00:02:49.042Z,149.63
2023-01-01T00:05:38.852Z,167.30
2023-01-01T00:08:25.769Z,228.88
2023-01-01T00:11:13.149Z,192.80
2023-01-01T00:14:00.011Z,178.00
2023-01-01T00:16:47.008Z,174.85
2023-01-01T00:19:34.004Z,177.15
2023-01-01T00:22:53.358Z,154.95
2023-01-01T00:25:28.273Z,136.23
2023-01-01T00:27:55.784Z,106.20
2023-01-01T00:30:22.500Z,100.75
2023-01-01T00:32:55.500Z,91.10
2023-01-01T00:35:24.816Z,88.07
2023-01-01T00:37:51.966Z,83.22
2023-01-01T00:40:18.838Z,81.38
2023-01-01T00:42:45.583Z,89.70
2023-01-01T00:45:17.087Z,100.97
2023-01-01T00:47:47.358Z,95.25
2023-01-01T00:50:14.024Z,101.45
2023-01-01T00:52:40.621Z,86.20
2023-01-01T00:55:07.715Z,104.72
2023-01-01T00:57:35.188Z,102.95
2023-01-01T01:00:01.830Z,106.30
2023-01-01T01:02:28.553Z,118.60
2023-01-01T01:04:55.397Z,101.25
2023-01-01T01:07:22.346Z,103.95
2023-01-01T01:09:48.919Z,103.20
2023-01-01T01:12:17.976Z,102.80
2023-01-01T01:14:45.796Z,112.07
2023-01-01T01:17:12.364Z,128.57
2023-01-01T01:19:38.981Z,139.48
2023-01-01T01:22:05.580Z,126.13
2023-01-01T01:24:32.175Z,121.70
2023-01-01T01:26:58.852Z,109.15
2023-01-01T01:29:25.439Z,118.70
2023-01-01T01:31:52.005Z,105.30
2023-01-01T01:34:22.500Z,101.03
2023-01-01T01:36:53.133Z,98.93
2023-01-01T01:39:20.083Z,93.00
2023-01-01T01:41:46.685Z,94.35
2023-01-01T01:44:52.267Z,99.40
2023-01-01T01:47:50.567Z,95.05
2023-01-01T01:50:32.177Z,98.90
2023-01-01T01:53:09.399Z,105.63
2023-01-01T01:55:39.795Z,99.72
2023-01-01T01:58:10.173Z,93.60
2023-01-01T02:00:37.052Z,96.65
2023-01-01T02:03:08.101Z,85.72
2023-01-01T02:05:35.949Z,92.65
2023-01-01T02:08:04.903Z,83.93
2023-01-01T02:10:32.063Z,84.22
2023-01-01T02:12:59.218Z,77.55
2023-01-01T02:15:30.866Z,69.45
2023-01-01T02:18:10.769Z,76.80
2023-01-01T02:21:06.964Z,85.53
2023-01-01T02:24:23.228Z,93.80
2023-01-01T02:27:10.177Z,101.25
2023-01-01T02:29:45.658Z,95.20
2023-01-01T02:32:22.356Z,105.00
2023-01-01T02:34:58.917Z,93.45
2023-01-01T02:37:29.105Z,99.72
2023-01-01T02:39:58.742Z,94.45
2023-01-01T02:42:29.074Z,99.60
2023-01-01T02:44:59.256Z,97.93
2023-01-01T02:47:25.800Z,114.68
2023-01-01T02:50:06.129Z,114.95
2023-01-01T02:53:10.290Z,113.10
2023-01-01T02:56:06.110Z,113.35
2023-01-01T02:59:11.318Z,105.38
2023-01-01T03:01:49.349Z,103.90
2023-01-01T03:05:20.536Z,91.47
2023-01-01T03:08:21.516Z,81.60
2023-01-01T03:11:04.715Z,75.93
2023-01-01T03:13:50.048Z,74.30
2023-01-01T03:16:50.965Z,60.10
2023-01-01T03:19:24.068Z,73.53
2023-01-01T03:22:07.630Z,61.05
2023-01-01T03:24:44.227Z,66.35
2023-01-01T03:27:22.227Z,70.80
2023-01-01T03:29:51.979Z,66.45
2023-01-01T03:32:44.639Z,66.25
2023-01-01T03:35:13.858Z,70.53
2023-01-01T03:37:44.484Z,79.20
2023-01-01T03:40:14.293Z,74.85
2023-01-01T03:42:46.793Z,73.63
2023-01-01T03:45:30.073Z,83.40
2023-01-01T03:47:56.923Z,67.28
2023-01-01T03:50:35.981Z,71.95
2023-01-01T03:53:19.971Z,55.70
2023-01-01T03:55:53.557Z,62.78
2023-01-01T03:58:45.816Z,54.03
2023-01-01T04:01:32.584Z,51.97
2023-01-01T04:04:01.306Z,49.30
2023-01-01T04:06:28.398Z,54.47
2023-01-01T04:08:58.926Z,55.80
2023-01-01T04:11:49.386Z,55.42
2023-01-01T04:14:40.488Z,47.70
2023-01-01T04:17:09.333Z,54.45
2023-01-01T04:19:36.323Z,52.53
2023-01-01T04:22:04.012Z,48.50
2023-01-01T04:24:30.784Z,50.00
2023-01-01T04:26:57.381Z,56.30
2023-01-01T04:29:23.982Z,50.67
2023-01-01T04:31:50.578Z,45.38
2023-01-01T04:34:17.735Z,54.13
2023-01-01T04:36:44.748Z,45.83
2023-01-01T04:39:11.355Z,46.28
2023-01-01T04:41:37.934Z,54.30
2023-01-01T04:44:04.862Z,58.13
2023-01-01T04:46:31.411Z,59.05
2023-01-01T04:48:58.179Z,61.65
2023-01-01T04:51:24.827Z,68.80
2023-01-01T04:53:51.423Z,70.63
2023-01-01T04:56:20.609Z,63.90
2023-01-01T04:58:47.827Z,70.90
2023-01-01T05:01:20.816Z,60.95
2023-01-01T05:03:48.506Z,64.47
2023-01-01T05:06:16.166Z,68.43
2023-01-01T05:08:45.441Z,60.58
2023-01-01T05:11:14.971Z,69.20
2023-01-01T05:13:46.791Z,66.85
2023-01-01T05:16:16.004Z,65.47
2023-01-01T05:18:43.406Z,61.63
2023-01-01T05:21:22.052Z,64.50
2023-01-01T05:23:49.411Z,69.25
2023-01-01T05:26:21.295Z,68.07
2023-01-01T05:28:48.363Z,68.72
2023-01-01T05:31:17.605Z,69.28
2023-01-01T05:33:44.725Z,62.83
2023-01-01T05:36:16.445Z,68.70
2023-01-01T05:38:43.094Z,70.13
2023-01-01T05:41:12.127Z,65.50
2023-01-01T05:43:38.817Z,63.20
2023-01-01T05:46:11.290Z,63.35
2023-01-01T05:51:07.982Z,66.97
2023-01-01T05:53:35.303Z,55.88
2023-01-01T05:56:02.788Z,55.88
2023-01-01T05:58:30.866Z,55.42
2023-01-01T06:01:05.187Z,44.47
2023-01-01T06:03:31.820Z,38.63
2023-01-01T06:06:02.980Z,47.17
2023-01-01T06:08:29.575Z,50.08
2023-01-01T06:11:04.313Z,44.67
2023-01-01T06:13:31.700Z,60.10
2023-01-01T06:16:00.268Z,50.92
2023-01-01T06:18:30.332Z,60.75
2023-01-01T06:21:07.218Z,357.02
2023-01-01T06:23:33.822Z,951.38
2023-01-01T06:26:14.567Z,792.92
2023-01-01T06:28:42.076Z,496.35
2023-01-01T06:31:11.211Z,384.25
2023-01-01T06:33:38.850Z,182.98
2023-01-01T06:36:08.835Z,199.27
2023-01-01T06:38:38.408Z,150.43
2023-01-01T06:41:11.428Z,105.68
2023-01-01T06:43:38.733Z,78.45
2023-01-01T06:46:06.757Z,97.45
2023-01-01T06:48:36.435Z,201.73
2023-01-01T06:51:12.231Z,198.20
2023-01-01T06:53:39.161Z,152.63
2023-01-01T06:56:06.450Z,101.53
2023-01-01T06:58:33.034Z,48.90
2023-01-01T07:01:17.406Z,44.13
2023-01-01T07:03:49.623Z,42.83
2023-01-01T07:06:16.219Z,38.58
2023-01-01T07:08:42.833Z,37.80
2023-01-01T07:11:09.393Z,37.03
2023-01-01T07:13:35.966Z,31.08
2023-01-01T07:16:05.507Z,31.02
2023-01-01T07:18:36.951Z,28.90
2023-01-01T07:21:04.974Z,34.35
2023-01-01T07:23:34.943Z,22.65
2023-01-01T07:26:01.996Z,33.90
2023-01-01T07:28:28.665Z,25.67
2023-01-01T07:30:55.289Z,26.40
2023-01-01T07:33:23.620Z,35.00
2023-01-01T07:35:50.668Z,40.92
2023-01-01T07:38:17.255Z,41.45
2023-01-01T07:40:43.869Z,36.13
2023-01-01T07:43:12.694Z,40.85
2023-01-01T07:45:39.827Z,45.33
2023-01-01T07:48:09.310Z,41.05
2023-01-01T07:50:38.244Z,40.47
2023-01-01T07:53:04.903Z,38.35
2023-01-01T07:55:32.334Z,36.55
2023-01-01T07:57:58.936Z,31.27
2023-01-01T08:00:25.695Z,30.10
2023-01-01T08:02:52.883Z,27.35
2023-01-01T08:05:26.089Z,31.98
2023-01-01T08:07:53.332Z,30.95
2023-01-01T08:10:20.819Z,27.77
2023-01-01T08:12:47.555Z,25.17
2023-01-01T08:15:15.556Z,28.25
2023-01-01T08:17:46.440Z,28.13
2023-01-01T08:20:13.706Z,30.38
2023-01-01T08:22:40.247Z,26.02
2023-01-01T08:25:07.422Z,29.83
2023-01-01T08:27:34.019Z,28.85
2023-01-01T08:30:00.617Z,27.17
2023-01-01T08:32:27.281Z,27.17
2023-01-01T08:34:53.886Z,25.85
2023-01-01T08:37:21.971Z,26.55
2023-01-01T08:39:52.590Z,24.88
2023-01-01T08:42:19.267Z,23.45
2023-01-01T08:44:46.181Z,25.27
2023-01-01T08:47:23.724Z,27.23
2023-01-01T08:49:50.999Z,21.65
2023-01-01T08:52:18.159Z,25.13
2023-01-01T08:54:44.769Z,21.70
2023-01-01T08:57:11.914Z,24.23
2023-01-01T08:59:38.613Z,44.00
2023-01-01T09:02:06.419Z,37.85
2023-01-01T09:04:34.045Z,41.15
2023-01-01T09:07:00.773Z,53.67
2023-01-01T09:09:31.385Z,55.22
2023-01-01T09:12:04.033Z,50.03
2023-01-01T09:14:31.226Z,61.97
2023-01-01T09:16:57.896Z,62.22
2023-01-01T09:19:24.558Z,64.70
2023-01-01T09:21:51.927Z,61.60
2023-01-01T09:24:18.495Z,74.50
2023-01-01T09:26:46.432Z,69.72
2023-01-01T09:29:13.061Z,71.35
2023-01-01T09:31:39.677Z,76.50
2023-01-01T09:34:06.204Z,62.88
2023-01-01T09:36:33.686Z,70.10
2023-01-01T09:39:01.272Z,59.75
2023-01-01T09:42:05.623Z,64.22
2023-01-01T09:45:23.498Z,71.55
2023-01-01T09:47:55.137Z,58.88
2023-01-01T09:50:33.951Z,68.33
2023-01-01T09:53:04.633Z,65.53
2023-01-01T09:55:53.983Z,70.05
2023-01-01T09:58:27.248Z,67.35
2023-01-01T10:00:59.384Z,59.83
2023-01-01T10:03:33.149Z,63.20
2023-01-01T10:06:30.503Z,60.42
2023-01-01T10:09:43.647Z,65.65
2023-01-01T10:12:34.741Z,60.20
2023-01-01T10:15:22.673Z,55.63
2023-01-01T10:17:57.414Z,55.42
2023-01-01T10:20:33.596Z,44.92
2023-01-01T10:23:07.591Z,54.08
2023-01-01T10:25:35.590Z,52.17
2023-01-01T10:28:07.033Z,44.33
2023-01-01T10:30:33.649Z,48.95
2023-01-01T10:33:00.364Z,54.78
2023-01-01T10:35:39.311Z,50.63
2023-01-01T10:38:06.288Z,45.38
2023-01-01T10:40:33.695Z,46.22
2023-01-01T10:43:02.664Z,44.47
2023-01-01T10:45:38.473Z,47.25
2023-01-01T10:48:23.038Z,39.38
2023-01-01T10:51:00.148Z,40.75
2023-01-01T10:53:50.468Z,42.97
2023-01-01T10:56:19.807Z,42.75
2023-01-01T10:58:58.630Z,43.15
2023-01-01T11:01:30.907Z,40.25
2023-01-01T11:04:34.717Z,43.45
2023-01-01T11:07:07.154Z,39.75
2023-01-01T11:09:38.622Z,38.72
2023-01-01T11:12:46.213Z,37.67
2023-01-01T11:15:06.294Z,37.38
2023-01-01T11:17:35.627Z,39.22
2023-01-01T11:20:04.733Z,35.97
2023-01-01T11:22:36.317Z,38.53
2023-01-01T11:25:04.966Z,48.20
2023-01-01T11:27:31.527Z,40.38
2023-01-01T11:30:21.974Z,41.72
2023-01-01T11:32:55.429Z,43.17
2023-01-01T11:35:25.556Z,40.78
2023-01-01T11:37:54.915Z,37.33
2023-01-01T11:40:27.384Z,44.90
2023-01-01T11:43:01.154Z,35.42
2023-01-01T11:45:40.282Z,38.88
2023-01-01T11:48:16.856Z,41.55
2023-01-01T11:50:54.301Z,39.65
2023-01-01T11:53:37.027Z,37.30
2023-01-01T11:56:22.639Z,35.15
2023-01-01T11:58:53.538Z,33.90
2023-01-01T12:01:40.398Z,37.22
2023-01-01T12:04:18.939Z,32.97
2023-01-01T12:07:00.055Z,33.35
2023-01-01T12:09:39.635Z,34.13
2023-01-01T12:12:13.589Z,33.75
2023-01-01T12:15:03.760Z,33.55
2023-01-01T12:17:53.990Z,41.42
2023-01-01T12:20:30.772Z,28.17
2023-01-01T12:22:59.625Z,26.60
2023-01-01T12:25:36.042Z,28.08
2023-01-01T12:29:00.988Z,26.02
2023-01-01T12:31:56.630Z,21.95
2023-01-01T12:35:00.344Z,23.40
2023-01-01T12:38:05.024Z,23.25
2023-01-01T12:40:54.693Z,25.60
2023-01-01T12:43:38.340Z,18.27
2023-01-01T12:46:43.082Z,22.15
2023-01-01T12:49:36.679Z,23.58
2023-01-01T12:52:33.307Z,22.73
2023-01-01T12:55:39.784Z,24.80
2023-01-01T12:58:30.724Z,23.77
2023-01-01T13:01:02.493Z,24.35
2023-01-01T13:03:34.271Z,20.20
2023-01-01T13:06:01.717Z,24.20
2023-01-01T13:08:28.299Z,20.58
2023-01-01T13:10:58.720Z,24.67
2023-01-01T13:13:26.300Z,23.23
2023-01-01T13:15:55.236Z,21.67
2023-01-01T13:18:32.602Z,25.42
2023-01-01T13:21:23.171Z,22.98
2023-01-01T13:23:50.958Z,24.20
2023-01-01T13:26:38.411Z,22.75
2023-01-01T13:29:30.586Z,23.50
2023-01-01T13:32:02.158Z,25.40
2023-01-01T13:34:38.101Z,24.20
2023-01-01T13:37:31.502Z,31.67
2023-01-01T13:40:48.716Z,23.75
2023-01-01T13:43:19.338Z,26.67
2023-01-01T13:49:05.572Z,28.80
2023-01-01T13:52:24.073Z,28.42
2023-01-01T13:55:55.375Z,31.38
2023-01-01T13:58:45.605Z,36.95
2023-01-01T14:10:33.060Z,72.32
2023-01-01T14:13:05.275Z,59.42
2023-01-01T14:15:37.306Z,46.78
2023-01-01T14:18:16.544Z,35.92
2023-01-01T14:20:51.442Z,42.53
2023-01-01T14:23:34.568Z,39.58
2023-01-01T14:26:13.811Z,37.53
2023-01-01T14:28:41.549Z,45.80
2023-01-01T14:31:22.073Z,35.15
2023-01-01T14:33:49.050Z,44.20
2023-01-01T14:36:30.981Z,42.85
2023-01-01T14:39:00.741Z,43.30
2023-01-01T14:41:41.561Z,60.13
2023-01-01T14:44:14.184Z,54.67
2023-01-01T14:49:42.552Z,45.65
2023-01-01T14:52:17.114Z,80.88
2023-01-01T14:54:46.153Z,74.05
2023-01-01T14:57:20.528Z,64.25
2023-01-01T14:59:49.425Z,65.45
2023-01-01T15:02:30.608Z,64.05
2023-01-01T15:04:58.523Z,60.50
2023-01-01T15:07:31.630Z,52.22
2023-01-01T15:10:01.652Z,58.88
2023-01-01T15:12:29.556Z,52.42
2023-01-01T15:14:58.116Z,57.33
2023-01-01T15:17:26.734Z,56.88
2023-01-01T15:20:19.767Z,61.65
2023-01-01T15:25:15.975Z,68.35
2023-01-01T15:27:44.259Z,93.15
2023-01-01T15:30:28.549Z,82.40
2023-01-01T15:32:56.066Z,98.50
2023-01-01T15:35:32.974Z,93.05
2023-01-01T15:38:03.699Z,86.70
2023-01-01T15:40:34.180Z,91.40
2023-01-01T15:43:22.316Z,83.60
2023-01-01T15:46:00.634Z,86.82
2023-01-01T15:48:37.611Z,80.90
2023-01-01T15:51:30.679Z,77.78
2023-01-01T15:56:30.906Z,79.63
2023-01-01T15:59:09.171Z,69.63
2023-01-01T16:01:39.685Z,73.30
2023-01-01T16:04:27.959Z,69.32
2023-01-01T16:06:56.826Z,73.93
2023-01-01T16:09:23.556Z,71.05
2023-01-01T16:11:55.003Z,66.85
2023-01-01T16:14:22.450Z,84.20
2023-01-01T16:17:01.136Z,76.25
2023-01-01T16:19:30.617Z,72.95
2023-01-01T16:21:57.496Z,70.22
2023-01-01T16:24:24.698Z,68.68
2023-01-01T16:26:51.530Z,86.68
2023-01-01T16:29:18.214Z,80.95
2023-01-01T16:31:47.414Z,76.70
2023-01-01T16:34:14.925Z,76.93
2023-01-01T16:36:42.662Z,79.00
2023-01-01T16:39:09.306Z,78.30
2023-01-01T16:41:35.866Z,73.45
2023-01-01T16:44:02.585Z,78.68
2023-01-01T16:46:29.251Z,86.15
2023-01-01T16:48:55.826Z,82.18
2023-01-01T16:51:29.570Z,84.57
2023-01-01T16:53:57.439Z,86.40
2023-01-01T16:56:24.395Z,80.72
2023-01-01T16:58:55.247Z,83.20
2023-01-01T17:01:27.300Z,81.20
2023-01-01T17:03:54.188Z,69.97
2023-01-01T17:06:20.787Z,79.93
2023-01-01T17:08:47.398Z,75.43
2023-01-01T17:11:16.961Z,80.13
2023-01-01T17:13:45.867Z,74.13
2023-01-01T17:16:17.818Z,76.75
2023-01-01T17:21:40.106Z,78.25
2023-01-01T17:24:07.049Z,79.30
2023-01-01T17:26:33.656Z,76.65
2023-01-01T17:29:01.289Z,84.22
2023-01-01T17:31:29.023Z,97.85
2023-01-01T17:33:56.470Z,86.32
2023-01-01T17:36:23.193Z,81.03
2023-01-01T17:38:49.961Z,89.80
2023-01-01T17:41:17.533Z,93.57
2023-01-01T17:43:46.827Z,94.75
2023-01-01T17:46:33.890Z,83.57
2023-01-01T17:49:01.486Z,81.00
2023-01-01T17:51:28.359Z,81.00
2023-01-01T17:53:56.194Z,88.78
2023-01-01T17:56:24.153Z,89.20
2023-01-01T17:58:53.346Z,104.13
2023-01-01T18:01:30.773Z,89.05
2023-01-01T18:04:03.581Z,99.10
2023-01-01T18:08:59.571Z,87.93
2023-01-01T18:11:30.404Z,78.90
2023-01-01T18:13:58.270Z,73.75
2023-01-01T18:16:25.171Z,86.75
2023-01-01T18:18:52.158Z,77.68
2023-01-01T18:21:23.798Z,71.22
2023-01-01T18:23:52.443Z,76.70
2023-01-01T18:26:19.804Z,78.00
2023-01-01T18:28:58.435Z,70.32
2023-01-01T18:31:26.591Z,77.93
2023-01-01T18:33:53.445Z,64.43
2023-01-01T18:36:24.512Z,65.30
2023-01-01T18:39:20.175Z,67.22
2023-01-01T18:42:09.641Z,62.03
2023-01-01T18:44:36.469Z,50.03
2023-01-01T18:47:20.990Z,66.50
2023-01-01T18:49:53.640Z,55.80
2023-01-01T18:52:28.194Z,60.47
2023-01-01T18:55:18.108Z,66.28
2023-01-01T18:57:52.937Z,67.10
2023-01-01T19:00:26.027Z,62.95
2023-01-01T19:02:58.183Z,57.22
2023-01-01T19:05:33.887Z,79.88
2023-01-01T19:08:18.398Z,73.47
2023-01-01T19:10:51.187Z,63.75
2023-01-01T19:13:42.782Z,70.60
2023-01-01T19:16:12.219Z,71.50
2023-01-01T19:18:41.446Z,71.40
2023-01-01T19:21:28.320Z,71.47
2023-01-01T19:24:00.775Z,58.83
2023-01-01T19:26:36.121Z,57.03
2023-01-01T19:29:13.193Z,48.78
2023-01-01T19:31:39.900Z,49.78
2023-01-01T19:34:06.541Z,51.70
2023-01-01T19:36:33.207Z,56.42
2023-01-01T19:38:59.789Z,65.45
2023-01-01T19:41:27.939Z,54.42
2023-01-01T19:43:54.573Z,70.82
2023-01-01T19:46:21.126Z,84.72
2023-01-01T19:48:49.169Z,106.63
2023-01-01T19:51:15.975Z,99.28
2023-01-01T19:53:42.549Z,104.60
2023-01-01T19:56:09.227Z,101.88
2023-01-01T19:58:35.842Z,95.07
2023-01-01T20:01:03.183Z,92.38
2023-01-01T20:06:16.364Z,94.20
2023-01-01T20:08:42.976Z,115.70
2023-01-01T20:11:12.373Z,108.90
2023-01-01T20:13:39.040Z,112.03
2023-01-01T20:16:06.292Z,102.57
2023-01-01T20:18:32.898Z,102.60
2023-01-01T20:21:23.685Z,103.07
2023-01-01T20:26:20.945Z,94.70
2023-01-01T20:29:06.269Z,86.93
2023-01-01T20:31:32.991Z,89.40
2023-01-01T20:33:59.669Z,95.07
2023-01-01T20:36:45.097Z,91.50
2023-01-01T20:39:12.704Z,87.38
2023-01-01T20:41:39.303Z,87.15
2023-01-01T20:44:06.289Z,89.97
2023-01-01T20:46:33.044Z,87.78
2023-01-01T20:48:59.797Z,80.07
2023-01-01T20:51:26.364Z,81.10
2023-01-01T20:53:53.115Z,80.05
2023-01-01T20:56:19.641Z,80.25
2023-01-01T20:58:50.237Z,75.75
2023-01-01T21:01:19.799Z,83.18
2023-01-01T21:03:46.453Z,103.47
2023-01-01T21:06:15.983Z,91.97
2023-01-01T21:08:46.896Z,94.35
2023-01-01T21:11:16.686Z,82.57
2023-01-01T21:13:46.758Z,83.70
2023-01-01T21:16:17.788Z,75.20
2023-01-01T21:18:45.056Z,74.50
2023-01-01T21:21:20.823Z,85.13
2023-01-01T21:23:48.243Z,78.70
2023-01-01T21:26:25.042Z,83.57
2023-01-01T21:28:51.802Z,81.60
2023-01-01T21:31:18.405Z,75.60
2023-01-01T21:33:46.246Z,80.32
2023-01-01T21:36:18.203Z,68.93
2023-01-01T21:38:47.383Z,66.40
2023-01-01T21:41:23.875Z,64.55
2023-01-01T21:43:55.263Z,57.63
2023-01-01T21:46:46.043Z,61.75
2023-01-01T21:49:29.206Z,58.17
2023-01-01T21:51:58.273Z,57.42
2023-01-01T21:54:42.751Z,56.53
2023-01-01T21:57:18.790Z,67.78
2023-01-01T21:59:46.763Z,61.33
2023-01-01T22:02:35.053Z,60.22
2023-01-01T22:05:19.800Z,63.95
2023-01-01T22:08:02.627Z,54.05
2023-01-01T22:10:34.608Z,62.42
2023-01-01T22:13:01.824Z,51.35
2023-01-01T22:15:38.117Z,56.15
2023-01-01T22:18:28.307Z,52.80
2023-01-01T22:20:56.322Z,60.95
2023-01-01T22:23:32.134Z,57.20
2023-01-01T22:25:58.762Z,64.97
2023-01-01T22:28:27.930Z,65.22
2023-01-01T22:30:59.648Z,52.55
2023-01-01T22:33:35.908Z,59.78
2023-01-01T22:36:03.101Z,55.33
2023-01-01T22:38:33.304Z,53.95
2023-01-01T22:41:00.473Z,56.40
2023-01-01T22:43:31.602Z,60.60
2023-01-01T22:46:02.325Z,58.70
2023-01-01T22:48:37.594Z,56.95
2023-01-01T22:51:25.046Z,58.00
2023-01-01T22:53:51.633Z,69.80
2023-01-01T22:56:18.201Z,156.25
2023-01-01T22:58:44.770Z,273.73
2023-01-01T23:01:11.544Z,99.50
2023-01-01T23:03:38.335Z,310.27
2023-01-01T23:06:05.312Z,300.30
2023-01-01T23:08:31.944Z,251.90
2023-01-01T23:11:00.598Z,417.38
2023-01-01T23:13:45.999Z,235.07
2023-01-01T23:16:12.704Z,128.80
2023-01-01T23:18:39.341Z,76.88
2023-01-01T23:21:12.307Z,52.65
2023-01-01T23:23:39.515Z,55.67
2023-01-01T23:26:07.955Z,54.05
2023-01-01T23:28:35.391Z,53.15
2023-01-01T23:31:03.734Z,47.33
2023-01-01T23:33:31.766Z,52.55
2023-01-01T23:35:59.221Z,41.72
2023-01-01T23:38:27.123Z,43.30
2023-01-01T23:40:53.759Z,50.08
2023-01-01T23:43:20.345Z,42.30
2023-01-01T23:45:48.096Z,34.33
2023-01-01T23:48:15.796Z,32.28
2023-01-01T23:50:43.043Z,33.90
2023-01-01T23:53:09.730Z,61.40
2023-01-01T23:55:36.313Z,87.70
2023-01-01T23:58:02.923Z,165.27
